sensor_id;sensor_type;location;lat;lon;timestamp;temperature;humidity
61201;DHT22;47065;52.898;6.992;2024-01-16T00:01:25;-0.20;99.90
61201;DHT22;47065;52.898;6.992;2024-01-16T00:03:51;-0.20;99.90
61201;DHT22;47065;52.898;6.992;2024-01-16T00:06:21;-0.20;99.90
61201;DHT22;47065;52.898;6.992;2024-01-16T00:08:46;-0.20;99.90
61201;DHT22;47065;52.898;6.992;2024-01-16T00:11:12;-0.20;99.90
61201;DHT22;47065;52.898;6.992;2024-01-16T00:13:38;-0.20;99.90
61201;DHT22;47065;52.898;6.992;2024-01-16T00:16:04;-0.20;99.90
61201;DHT22;47065;52.898;6.992;2024-01-16T00:18:30;-0.20;99.90
61201;DHT22;47065;52.898;6.992;2024-01-16T00:20:56;-0.20;99.90
61201;DHT22;47065;52.898;6.992;2024-01-16T00:23:22;-0.20;99.90
61201;DHT22;47065;52.898;6.992;2024-01-16T00:25:48;-0.20;99.90
61201;DHT22;47065;52.898;6.992;2024-01-16T00:28:14;-0.20;99.90
61201;DHT22;47065;52.898;6.992;2024-01-16T00:30:40;-0.20;99.90
61201;DHT22;47065;52.898;6.992;2024-01-16T00:33:06;-0.20;99.90
61201;DHT22;47065;52.898;6.992;2024-01-16T00:35:32;-0.20;99.90
61201;DHT22;47065;52.898;6.992;2024-01-16T00:37:58;-0.20;99.90
61201;DHT22;47065;52.898;6.992;2024-01-16T00:40:24;-0.20;99.90
61201;DHT22;47065;52.898;6.992;2024-01-16T00:42:50;-0.30;99.90
61201;DHT22;47065;52.898;6.992;2024-01-16T00:45:17;-0.20;99.90
61201;DHT22;47065;52.898;6.992;2024-01-16T00:47:43;-0.30;99.90
61201;DHT22;47065;52.898;6.992;2024-01-16T00:50:09;-0.30;99.90
61201;DHT22;47065;52.898;6.992;2024-01-16T00:52:35;-0.30;99.90
61201;DHT22;47065;52.898;6.992;2024-01-16T00:55:01;-0.30;99.90
61201;DHT22;47065;52.898;6.992;2024-01-16T00:57:28;-0.30;99.90
61201;DHT22;47065;52.898;6.992;2024-01-16T00:59:54;-0.40;99.90
61201;DHT22;47065;52.898;6.992;2024-01-16T01:02:20;-0.40;99.90
61201;DHT22;47065;52.898;6.992;2024-01-16T01:04:45;-0.40;99.90
61201;DHT22;47065;52.898;6.992;2024-01-16T01:07:14;-0.40;99.90
61201;DHT22;47065;52.898;6.992;2024-01-16T01:09:40;-0.40;99.90
61201;DHT22;47065;52.898;6.992;2024-01-16T01:12:06;-0.50;99.90
61201;DHT22;47065;52.898;6.992;2024-01-16T01:14:33;-0.50;99.90
61201;DHT22;47065;52.898;6.992;2024-01-16T01:17:02;-0.50;99.90
61201;DHT22;47065;52.898;6.992;2024-01-16T01:19:28;-0.50;99.90
61201;DHT22;47065;52.898;6.992;2024-01-16T01:21:54;-0.50;99.90
61201;DHT22;47065;52.898;6.992;2024-01-16T01:24:20;-0.50;99.90
61201;DHT22;47065;52.898;6.992;2024-01-16T01:26:46;-0.50;99.90
61201;DHT22;47065;52.898;6.992;2024-01-16T01:29:12;-0.50;99.90
61201;DHT22;47065;52.898;6.992;2024-01-16T01:31:38;-0.60;99.90
61201;DHT22;47065;52.898;6.992;2024-01-16T01:34:04;-0.60;99.90
61201;DHT22;47065;52.898;6.992;2024-01-16T01:36:30;-0.50;99.90
61201;DHT22;47065;52.898;6.992;2024-01-16T01:38:56;-0.50;99.90
61201;DHT22;47065;52.898;6.992;2024-01-16T01:41:22;-0.50;99.90
61201;DHT22;47065;52.898;6.992;2024-01-16T01:43:48;-0.40;99.90
61201;DHT22;47065;52.898;6.992;2024-01-16T01:46:18;-0.40;99.90
61201;DHT22;47065;52.898;6.992;2024-01-16T01:48:46;-0.30;99.90
61201;DHT22;47065;52.898;6.992;2024-01-16T01:51:14;-0.30;99.90
61201;DHT22;47065;52.898;6.992;2024-01-16T01:53:48;-0.30;99.90
61201;DHT22;47065;52.898;6.992;2024-01-16T01:56:17;-0.30;99.90
61201;DHT22;47065;52.898;6.992;2024-01-16T01:58:45;-0.30;99.90
61201;DHT22;47065;52.898;6.992;2024-01-16T02:01:12;-0.30;99.90
61201;DHT22;47065;52.898;6.992;2024-01-16T02:03:46;-0.30;99.90
61201;DHT22;47065;52.898;6.992;2024-01-16T02:06:13;-0.40;99.90
61201;DHT22;47065;52.898;6.992;2024-01-16T02:08:42;-0.40;99.90
61201;DHT22;47065;52.898;6.992;2024-01-16T02:11:09;-0.40;99.90
61201;DHT22;47065;52.898;6.992;2024-01-16T02:13:38;-0.40;99.90
61201;DHT22;47065;52.898;6.992;2024-01-16T02:16:04;-0.50;99.90
61201;DHT22;47065;52.898;6.992;2024-01-16T02:18:31;-0.50;99.90
61201;DHT22;47065;52.898;6.992;2024-01-16T02:21:00;-0.50;99.90
61201;DHT22;47065;52.898;6.992;2024-01-16T02:23:47;-0.50;99.90
61201;DHT22;47065;52.898;6.992;2024-01-16T02:26:19;-0.50;99.90
61201;DHT22;47065;52.898;6.992;2024-01-16T02:28:46;-0.50;99.90
61201;DHT22;47065;52.898;6.992;2024-01-16T02:31:12;-0.50;99.90
61201;DHT22;47065;52.898;6.992;2024-01-16T02:33:38;-0.50;99.90
61201;DHT22;47065;52.898;6.992;2024-01-16T02:36:04;-0.50;99.90
61201;DHT22;47065;52.898;6.992;2024-01-16T02:38:30;-0.50;99.90
61201;DHT22;47065;52.898;6.992;2024-01-16T02:40:56;-0.50;99.90
61201;DHT22;47065;52.898;6.992;2024-01-16T02:43:22;-0.50;99.90
61201;DHT22;47065;52.898;6.992;2024-01-16T02:45:49;-0.40;99.90
61201;DHT22;47065;52.898;6.992;2024-01-16T02:48:15;-0.30;99.90
61201;DHT22;47065;52.898;6.992;2024-01-16T02:50:41;-0.30;99.90
61201;DHT22;47065;52.898;6.992;2024-01-16T02:53:07;-0.30;99.90
61201;DHT22;47065;52.898;6.992;2024-01-16T02:55:32;-0.30;99.90
61201;DHT22;47065;52.898;6.992;2024-01-16T02:57:58;-0.30;99.90
61201;DHT22;47065;52.898;6.992;2024-01-16T03:00:24;-0.30;99.90
61201;DHT22;47065;52.898;6.992;2024-01-16T03:02:50;-0.30;99.90
61201;DHT22;47065;52.898;6.992;2024-01-16T03:05:15;-0.30;99.90
61201;DHT22;47065;52.898;6.992;2024-01-16T03:07:41;-0.30;99.90
61201;DHT22;47065;52.898;6.992;2024-01-16T03:10:07;-0.20;99.90
61201;DHT22;47065;52.898;6.992;2024-01-16T03:12:33;-0.20;99.90
61201;DHT22;47065;52.898;6.992;2024-01-16T03:14:59;-0.20;99.90
61201;DHT22;47065;52.898;6.992;2024-01-16T03:17:25;-0.30;99.90
61201;DHT22;47065;52.898;6.992;2024-01-16T03:19:51;-0.30;99.90
61201;DHT22;47065;52.898;6.992;2024-01-16T03:22:17;-0.30;99.90
61201;DHT22;47065;52.898;6.992;2024-01-16T03:24:44;-0.30;99.90
61201;DHT22;47065;52.898;6.992;2024-01-16T03:27:09;-0.30;99.90
61201;DHT22;47065;52.898;6.992;2024-01-16T03:29:36;-0.40;99.90
61201;DHT22;47065;52.898;6.992;2024-01-16T03:32:02;-0.40;99.90
61201;DHT22;47065;52.898;6.992;2024-01-16T03:34:30;-0.40;99.90
61201;DHT22;47065;52.898;6.992;2024-01-16T03:36:57;-0.40;99.90
61201;DHT22;47065;52.898;6.992;2024-01-16T03:39:23;-0.40;99.90
61201;DHT22;47065;52.898;6.992;2024-01-16T03:41:49;-0.50;99.90
61201;DHT22;47065;52.898;6.992;2024-01-16T03:44:15;-0.50;99.90
61201;DHT22;47065;52.898;6.992;2024-01-16T03:46:41;-0.50;99.90
61201;DHT22;47065;52.898;6.992;2024-01-16T03:49:07;-0.50;99.90
61201;DHT22;47065;52.898;6.992;2024-01-16T03:51:32;-0.50;99.90
61201;DHT22;47065;52.898;6.992;2024-01-16T03:53:58;-0.50;99.90
61201;DHT22;47065;52.898;6.992;2024-01-16T03:56:24;-0.50;99.90
61201;DHT22;47065;52.898;6.992;2024-01-16T03:58:49;-0.60;99.90
61201;DHT22;47065;52.898;6.992;2024-01-16T04:01:15;-0.60;99.90
61201;DHT22;47065;52.898;6.992;2024-01-16T04:03:40;-0.50;99.90
61201;DHT22;47065;52.898;6.992;2024-01-16T04:06:19;-0.50;99.90
61201;DHT22;47065;52.898;6.992;2024-01-16T04:08:45;-0.50;99.90
61201;DHT22;47065;52.898;6.992;2024-01-16T04:11:14;-0.40;99.90
61201;DHT22;47065;52.898;6.992;2024-01-16T04:13:40;-0.50;99.90
61201;DHT22;47065;52.898;6.992;2024-01-16T04:16:06;-0.50;99.90
61201;DHT22;47065;52.898;6.992;2024-01-16T04:18:39;-0.40;99.90
61201;DHT22;47065;52.898;6.992;2024-01-16T04:21:06;-0.40;99.90
61201;DHT22;47065;52.898;6.992;2024-01-16T04:23:32;-0.50;99.90
61201;DHT22;47065;52.898;6.992;2024-01-16T04:25:58;-0.40;99.90
61201;DHT22;47065;52.898;6.992;2024-01-16T04:28:23;-0.40;99.90
61201;DHT22;47065;52.898;6.992;2024-01-16T04:30:49;-0.40;99.90
61201;DHT22;47065;52.898;6.992;2024-01-16T04:33:15;-0.40;99.90
61201;DHT22;47065;52.898;6.992;2024-01-16T04:35:40;-0.40;99.90
61201;DHT22;47065;52.898;6.992;2024-01-16T04:38:06;-0.40;99.90
61201;DHT22;47065;52.898;6.992;2024-01-16T04:40:35;-0.40;99.90
61201;DHT22;47065;52.898;6.992;2024-01-16T04:43:01;-0.40;99.90
61201;DHT22;47065;52.898;6.992;2024-01-16T04:45:28;-0.40;99.90
61201;DHT22;47065;52.898;6.992;2024-01-16T04:47:53;-0.40;99.90
61201;DHT22;47065;52.898;6.992;2024-01-16T04:50:19;-0.30;99.90
61201;DHT22;47065;52.898;6.992;2024-01-16T04:52:45;-0.30;99.90
61201;DHT22;47065;52.898;6.992;2024-01-16T04:55:11;-0.30;99.90
61201;DHT22;47065;52.898;6.992;2024-01-16T04:57:36;-0.30;99.90
61201;DHT22;47065;52.898;6.992;2024-01-16T05:00:03;-0.30;99.90
61201;DHT22;47065;52.898;6.992;2024-01-16T05:02:35;-0.30;99.90
61201;DHT22;47065;52.898;6.992;2024-01-16T05:05:01;-0.30;99.90
61201;DHT22;47065;52.898;6.992;2024-01-16T05:07:26;-0.30;99.90
61201;DHT22;47065;52.898;6.992;2024-01-16T05:09:52;-0.30;99.90
61201;DHT22;47065;52.898;6.992;2024-01-16T05:12:19;-0.30;99.90
61201;DHT22;47065;52.898;6.992;2024-01-16T05:14:44;-0.20;99.90
61201;DHT22;47065;52.898;6.992;2024-01-16T05:17:10;-0.20;99.90
61201;DHT22;47065;52.898;6.992;2024-01-16T05:19:36;-0.20;99.90
61201;DHT22;47065;52.898;6.992;2024-01-16T05:22:02;-0.20;99.90
61201;DHT22;47065;52.898;6.992;2024-01-16T05:24:28;-0.20;99.90
61201;DHT22;47065;52.898;6.992;2024-01-16T05:26:54;-0.20;99.90
61201;DHT22;47065;52.898;6.992;2024-01-16T05:29:19;-0.20;99.90
61201;DHT22;47065;52.898;6.992;2024-01-16T05:31:45;-0.20;99.90
61201;DHT22;47065;52.898;6.992;2024-01-16T05:34:11;-0.20;99.90
61201;DHT22;47065;52.898;6.992;2024-01-16T05:36:37;-0.20;99.90
61201;DHT22;47065;52.898;6.992;2024-01-16T05:39:02;-0.20;99.90
61201;DHT22;47065;52.898;6.992;2024-01-16T05:41:33;-0.20;99.90
61201;DHT22;47065;52.898;6.992;2024-01-16T05:43:59;-0.10;99.90
61201;DHT22;47065;52.898;6.992;2024-01-16T05:46:25;-0.10;99.90
61201;DHT22;47065;52.898;6.992;2024-01-16T05:48:50;-0.10;99.90
61201;DHT22;47065;52.898;6.992;2024-01-16T05:51:16;-0.20;99.90
61201;DHT22;47065;52.898;6.992;2024-01-16T05:53:42;-0.10;99.90
61201;DHT22;47065;52.898;6.992;2024-01-16T05:56:07;-0.10;99.90
61201;DHT22;47065;52.898;6.992;2024-01-16T05:58:33;-0.10;99.90
61201;DHT22;47065;52.898;6.992;2024-01-16T06:01:04;-0.10;99.90
61201;DHT22;47065;52.898;6.992;2024-01-16T06:03:30;-0.10;99.90
61201;DHT22;47065;52.898;6.992;2024-01-16T06:05:55;-0.10;99.90
61201;DHT22;47065;52.898;6.992;2024-01-16T06:08:21;-0.10;99.90
61201;DHT22;47065;52.898;6.992;2024-01-16T06:10:47;-0.10;99.90
61201;DHT22;47065;52.898;6.992;2024-01-16T06:13:13;-0.20;99.90
61201;DHT22;47065;52.898;6.992;2024-01-16T06:15:38;-0.10;99.90
61201;DHT22;47065;52.898;6.992;2024-01-16T06:18:04;-0.10;99.90
61201;DHT22;47065;52.898;6.992;2024-01-16T06:20:30;-0.10;99.90
61201;DHT22;47065;52.898;6.992;2024-01-16T06:22:56;-0.10;99.90
61201;DHT22;47065;52.898;6.992;2024-01-16T06:25:22;-0.10;99.90
61201;DHT22;47065;52.898;6.992;2024-01-16T06:27:47;-0.10;99.90
61201;DHT22;47065;52.898;6.992;2024-01-16T06:30:13;-0.10;99.90
61201;DHT22;47065;52.898;6.992;2024-01-16T06:32:39;-0.10;99.90
61201;DHT22;47065;52.898;6.992;2024-01-16T06:35:05;-0.10;99.90
61201;DHT22;47065;52.898;6.992;2024-01-16T06:37:31;-0.10;99.90
61201;DHT22;47065;52.898;6.992;2024-01-16T06:39:56;-0.10;99.90
61201;DHT22;47065;52.898;6.992;2024-01-16T06:42:22;-0.10;99.90
61201;DHT22;47065;52.898;6.992;2024-01-16T06:44:48;0.00;99.90
61201;DHT22;47065;52.898;6.992;2024-01-16T06:47:13;-0.10;99.90
61201;DHT22;47065;52.898;6.992;2024-01-16T06:49:40;0.00;99.90
61201;DHT22;47065;52.898;6.992;2024-01-16T06:52:08;-0.10;99.90
61201;DHT22;47065;52.898;6.992;2024-01-16T06:54:33;0.00;99.90
61201;DHT22;47065;52.898;6.992;2024-01-16T06:56:59;0.00;99.90
61201;DHT22;47065;52.898;6.992;2024-01-16T06:59:24;0.00;99.90
61201;DHT22;47065;52.898;6.992;2024-01-16T07:01:50;0.00;99.90
61201;DHT22;47065;52.898;6.992;2024-01-16T07:04:17;0.00;99.90
61201;DHT22;47065;52.898;6.992;2024-01-16T07:06:42;0.00;99.90
61201;DHT22;47065;52.898;6.992;2024-01-16T07:09:09;0.00;99.90
61201;DHT22;47065;52.898;6.992;2024-01-16T07:11:37;0.00;99.90
61201;DHT22;47065;52.898;6.992;2024-01-16T07:14:03;0.00;99.90
61201;DHT22;47065;52.898;6.992;2024-01-16T07:16:29;0.00;99.90
61201;DHT22;47065;52.898;6.992;2024-01-16T07:18:54;0.00;99.90
61201;DHT22;47065;52.898;6.992;2024-01-16T07:21:21;0.10;99.90
61201;DHT22;47065;52.898;6.992;2024-01-16T07:23:47;0.00;99.90
61201;DHT22;47065;52.898;6.992;2024-01-16T07:26:13;0.00;99.90
61201;DHT22;47065;52.898;6.992;2024-01-16T07:28:39;0.00;99.90
61201;DHT22;47065;52.898;6.992;2024-01-16T07:31:04;0.00;99.90
61201;DHT22;47065;52.898;6.992;2024-01-16T07:33:31;0.10;99.90
61201;DHT22;47065;52.898;6.992;2024-01-16T07:35:57;0.10;99.90
61201;DHT22;47065;52.898;6.992;2024-01-16T07:38:22;0.00;99.90
61201;DHT22;47065;52.898;6.992;2024-01-16T07:40:48;0.00;99.90
61201;DHT22;47065;52.898;6.992;2024-01-16T07:43:14;0.10;99.90
61201;DHT22;47065;52.898;6.992;2024-01-16T07:45:40;0.10;99.90
61201;DHT22;47065;52.898;6.992;2024-01-16T07:48:05;0.00;99.90
61201;DHT22;47065;52.898;6.992;2024-01-16T07:50:31;0.00;99.90
61201;DHT22;47065;52.898;6.992;2024-01-16T07:52:57;0.00;99.90
61201;DHT22;47065;52.898;6.992;2024-01-16T07:55:22;0.00;99.90
61201;DHT22;47065;52.898;6.992;2024-01-16T07:57:48;0.00;99.90
61201;DHT22;47065;52.898;6.992;2024-01-16T08:00:14;0.10;99.90
61201;DHT22;47065;52.898;6.992;2024-01-16T08:02:40;0.10;99.90
61201;DHT22;47065;52.898;6.992;2024-01-16T08:05:07;0.00;99.90
61201;DHT22;47065;52.898;6.992;2024-01-16T08:07:32;0.00;99.90
61201;DHT22;47065;52.898;6.992;2024-01-16T08:10:00;0.00;99.90
61201;DHT22;47065;52.898;6.992;2024-01-16T08:12:26;0.00;99.90
61201;DHT22;47065;52.898;6.992;2024-01-16T08:14:52;0.00;99.90
61201;DHT22;47065;52.898;6.992;2024-01-16T08:17:17;0.00;99.90
61201;DHT22;47065;52.898;6.992;2024-01-16T08:19:43;0.00;99.90
61201;DHT22;47065;52.898;6.992;2024-01-16T08:22:09;0.00;99.90
61201;DHT22;47065;52.898;6.992;2024-01-16T08:24:34;0.00;99.90
61201;DHT22;47065;52.898;6.992;2024-01-16T08:27:00;0.00;99.90
61201;DHT22;47065;52.898;6.992;2024-01-16T08:29:26;0.00;99.90
61201;DHT22;47065;52.898;6.992;2024-01-16T08:31:51;0.00;99.90
61201;DHT22;47065;52.898;6.992;2024-01-16T08:34:18;0.00;99.90
61201;DHT22;47065;52.898;6.992;2024-01-16T08:36:44;0.00;99.90
61201;DHT22;47065;52.898;6.992;2024-01-16T08:39:10;0.00;99.90
61201;DHT22;47065;52.898;6.992;2024-01-16T08:41:36;0.10;99.90
61201;DHT22;47065;52.898;6.992;2024-01-16T08:44:02;0.10;99.90
61201;DHT22;47065;52.898;6.992;2024-01-16T08:46:27;0.20;99.90
61201;DHT22;47065;52.898;6.992;2024-01-16T08:48:53;0.30;99.90
61201;DHT22;47065;52.898;6.992;2024-01-16T08:51:19;0.30;99.90
61201;DHT22;47065;52.898;6.992;2024-01-16T08:53:45;0.40;99.90
61201;DHT22;47065;52.898;6.992;2024-01-16T08:56:13;0.40;99.90
61201;DHT22;47065;52.898;6.992;2024-01-16T08:58:39;0.40;99.90
61201;DHT22;47065;52.898;6.992;2024-01-16T09:01:05;0.50;99.90
61201;DHT22;47065;52.898;6.992;2024-01-16T09:03:34;0.50;99.90
61201;DHT22;47065;52.898;6.992;2024-01-16T09:06:00;0.50;99.90
61201;DHT22;47065;52.898;6.992;2024-01-16T09:08:27;0.50;99.90
61201;DHT22;47065;52.898;6.992;2024-01-16T09:10:53;0.60;99.90
61201;DHT22;47065;52.898;6.992;2024-01-16T09:13:19;0.60;99.90
61201;DHT22;47065;52.898;6.992;2024-01-16T09:15:49;0.60;99.90
61201;DHT22;47065;52.898;6.992;2024-01-16T09:18:16;0.70;99.90
61201;DHT22;47065;52.898;6.992;2024-01-16T09:20:42;0.70;99.90
61201;DHT22;47065;52.898;6.992;2024-01-16T09:23:08;0.70;99.90
61201;DHT22;47065;52.898;6.992;2024-01-16T09:25:37;0.70;99.90
61201;DHT22;47065;52.898;6.992;2024-01-16T09:28:02;0.80;99.90
61201;DHT22;47065;52.898;6.992;2024-01-16T09:30:28;0.80;99.90
61201;DHT22;47065;52.898;6.992;2024-01-16T09:32:54;0.80;99.90
61201;DHT22;47065;52.898;6.992;2024-01-16T09:35:19;0.80;99.90
61201;DHT22;47065;52.898;6.992;2024-01-16T09:37:45;0.80;99.90
61201;DHT22;47065;52.898;6.992;2024-01-16T09:40:11;0.80;99.90
61201;DHT22;47065;52.898;6.992;2024-01-16T09:42:38;0.90;99.90
61201;DHT22;47065;52.898;6.992;2024-01-16T09:45:06;0.90;99.90
61201;DHT22;47065;52.898;6.992;2024-01-16T09:47:33;0.90;99.90
61201;DHT22;47065;52.898;6.992;2024-01-16T09:50:03;0.90;99.90
61201;DHT22;47065;52.898;6.992;2024-01-16T09:52:29;1.00;99.90
61201;DHT22;47065;52.898;6.992;2024-01-16T09:54:55;1.00;99.90
61201;DHT22;47065;52.898;6.992;2024-01-16T09:57:25;1.00;99.90
61201;DHT22;47065;52.898;6.992;2024-01-16T09:59:51;1.00;99.90
61201;DHT22;47065;52.898;6.992;2024-01-16T10:02:18;1.10;99.90
61201;DHT22;47065;52.898;6.992;2024-01-16T10:04:45;1.10;99.90
61201;DHT22;47065;52.898;6.992;2024-01-16T10:07:12;1.10;99.90
61201;DHT22;47065;52.898;6.992;2024-01-16T10:09:39;1.20;99.90
61201;DHT22;47065;52.898;6.992;2024-01-16T10:12:06;1.20;99.90
61201;DHT22;47065;52.898;6.992;2024-01-16T10:14:33;1.20;99.90
61201;DHT22;47065;52.898;6.992;2024-01-16T10:17:03;1.30;99.90
61201;DHT22;47065;52.898;6.992;2024-01-16T10:19:35;1.30;99.90
61201;DHT22;47065;52.898;6.992;2024-01-16T10:22:08;1.30;99.90
61201;DHT22;47065;52.898;6.992;2024-01-16T10:24:34;1.30;99.90
61201;DHT22;47065;52.898;6.992;2024-01-16T10:27:01;1.30;99.90
61201;DHT22;47065;52.898;6.992;2024-01-16T10:29:31;1.30;99.90
61201;DHT22;47065;52.898;6.992;2024-01-16T10:31:58;1.40;99.90
61201;DHT22;47065;52.898;6.992;2024-01-16T10:34:24;1.40;99.90
61201;DHT22;47065;52.898;6.992;2024-01-16T10:36:51;1.40;99.90
61201;DHT22;47065;52.898;6.992;2024-01-16T10:39:18;1.40;99.90
61201;DHT22;47065;52.898;6.992;2024-01-16T10:41:57;1.40;99.90
61201;DHT22;47065;52.898;6.992;2024-01-16T10:44:23;1.40;99.90
61201;DHT22;47065;52.898;6.992;2024-01-16T10:46:49;1.50;99.90
61201;DHT22;47065;52.898;6.992;2024-01-16T10:49:14;1.40;99.90
61201;DHT22;47065;52.898;6.992;2024-01-16T10:51:43;1.50;99.90
61201;DHT22;47065;52.898;6.992;2024-01-16T10:54:12;1.50;99.90
61201;DHT22;47065;52.898;6.992;2024-01-16T10:56:44;1.50;99.90
61201;DHT22;47065;52.898;6.992;2024-01-16T11:02:24;1.50;99.90
61201;DHT22;47065;52.898;6.992;2024-01-16T11:04:51;1.50;99.90
61201;DHT22;47065;52.898;6.992;2024-01-16T11:07:18;1.50;99.90
61201;DHT22;47065;52.898;6.992;2024-01-16T11:09:45;1.50;99.90
61201;DHT22;47065;52.898;6.992;2024-01-16T11:12:11;1.50;99.90
61201;DHT22;47065;52.898;6.992;2024-01-16T11:14:43;1.50;99.90
61201;DHT22;47065;52.898;6.992;2024-01-16T11:17:11;1.50;99.90
61201;DHT22;47065;52.898;6.992;2024-01-16T11:19:44;1.50;99.90
61201;DHT22;47065;52.898;6.992;2024-01-16T11:22:10;1.60;99.90
61201;DHT22;47065;52.898;6.992;2024-01-16T11:24:36;1.60;99.90
61201;DHT22;47065;52.898;6.992;2024-01-16T11:27:01;1.60;99.90
61201;DHT22;47065;52.898;6.992;2024-01-16T11:31:54;1.60;99.90
61201;DHT22;47065;52.898;6.992;2024-01-16T11:37:08;1.70;99.90
61201;DHT22;47065;52.898;6.992;2024-01-16T11:39:34;1.80;99.90
61201;DHT22;47065;52.898;6.992;2024-01-16T11:42:00;1.80;99.90
61201;DHT22;47065;52.898;6.992;2024-01-16T11:47:07;1.80;99.90
61201;DHT22;47065;52.898;6.992;2024-01-16T11:49:35;1.80;99.90
61201;DHT22;47065;52.898;6.992;2024-01-16T11:52:01;1.80;99.90
61201;DHT22;47065;52.898;6.992;2024-01-16T11:54:27;1.80;99.90
61201;DHT22;47065;52.898;6.992;2024-01-16T12:05:07;1.90;99.90
61201;DHT22;47065;52.898;6.992;2024-01-16T12:07:48;1.90;99.90
61201;DHT22;47065;52.898;6.992;2024-01-16T12:10:18;1.90;99.90
61201;DHT22;47065;52.898;6.992;2024-01-16T12:12:45;1.90;99.90
61201;DHT22;47065;52.898;6.992;2024-01-16T12:15:20;1.80;99.90
61201;DHT22;47065;52.898;6.992;2024-01-16T12:20:23;1.80;99.90
61201;DHT22;47065;52.898;6.992;2024-01-16T12:23:05;1.70;99.90
61201;DHT22;47065;52.898;6.992;2024-01-16T12:25:37;1.70;99.90
61201;DHT22;47065;52.898;6.992;2024-01-16T12:28:04;1.60;99.90
61201;DHT22;47065;52.898;6.992;2024-01-16T12:30:31;1.60;99.90
61201;DHT22;47065;52.898;6.992;2024-01-16T12:33:08;1.60;99.90
61201;DHT22;47065;52.898;6.992;2024-01-16T12:35:41;1.60;99.90
61201;DHT22;47065;52.898;6.992;2024-01-16T12:38:09;1.60;99.90
61201;DHT22;47065;52.898;6.992;2024-01-16T12:43:08;1.70;99.90
61201;DHT22;47065;52.898;6.992;2024-01-16T12:45:37;1.70;99.90
61201;DHT22;47065;52.898;6.992;2024-01-16T12:48:03;1.70;99.90
61201;DHT22;47065;52.898;6.992;2024-01-16T12:50:30;1.70;99.90
61201;DHT22;47065;52.898;6.992;2024-01-16T12:53:06;1.80;99.90
61201;DHT22;47065;52.898;6.992;2024-01-16T12:55:33;1.70;99.90
61201;DHT22;47065;52.898;6.992;2024-01-16T12:58:35;1.80;99.90
61201;DHT22;47065;52.898;6.992;2024-01-16T13:01:24;1.70;99.90
61201;DHT22;47065;52.898;6.992;2024-01-16T13:03:50;1.70;99.90
61201;DHT22;47065;52.898;6.992;2024-01-16T13:06:20;1.60;99.90
61201;DHT22;47065;52.898;6.992;2024-01-16T13:08:50;1.70;99.90
61201;DHT22;47065;52.898;6.992;2024-01-16T13:11:16;1.60;99.90
61201;DHT22;47065;52.898;6.992;2024-01-16T13:13:48;1.60;99.90
61201;DHT22;47065;52.898;6.992;2024-01-16T13:16:15;1.70;99.90
61201;DHT22;47065;52.898;6.992;2024-01-16T13:18:41;1.70;99.90
61201;DHT22;47065;52.898;6.992;2024-01-16T13:21:08;1.80;99.90
61201;DHT22;47065;52.898;6.992;2024-01-16T13:23:34;1.80;99.90
61201;DHT22;47065;52.898;6.992;2024-01-16T13:26:01;1.90;99.90
61201;DHT22;47065;52.898;6.992;2024-01-16T13:28:30;1.90;99.90
61201;DHT22;47065;52.898;6.992;2024-01-16T13:30:56;1.90;99.90
61201;DHT22;47065;52.898;6.992;2024-01-16T13:33:25;1.90;99.90
61201;DHT22;47065;52.898;6.992;2024-01-16T13:35:54;2.00;99.90
61201;DHT22;47065;52.898;6.992;2024-01-16T13:38:20;2.00;99.90
61201;DHT22;47065;52.898;6.992;2024-01-16T13:40:46;2.00;99.90
61201;DHT22;47065;52.898;6.992;2024-01-16T13:43:12;2.00;99.90
61201;DHT22;47065;52.898;6.992;2024-01-16T13:45:39;2.00;99.90
61201;DHT22;47065;52.898;6.992;2024-01-16T13:48:05;2.00;99.90
61201;DHT22;47065;52.898;6.992;2024-01-16T13:50:32;2.00;99.90
61201;DHT22;47065;52.898;6.992;2024-01-16T13:52:59;2.00;99.90
61201;DHT22;47065;52.898;6.992;2024-01-16T13:55:25;1.90;99.90
61201;DHT22;47065;52.898;6.992;2024-01-16T13:57:51;1.90;99.90
61201;DHT22;47065;52.898;6.992;2024-01-16T14:00:17;1.90;99.90
61201;DHT22;47065;52.898;6.992;2024-01-16T14:02:45;1.90;99.90
61201;DHT22;47065;52.898;6.992;2024-01-16T14:05:12;1.90;99.90
61201;DHT22;47065;52.898;6.992;2024-01-16T14:07:41;2.00;99.90
61201;DHT22;47065;52.898;6.992;2024-01-16T14:10:10;2.00;99.90
61201;DHT22;47065;52.898;6.992;2024-01-16T14:12:41;1.90;99.90
61201;DHT22;47065;52.898;6.992;2024-01-16T14:15:20;1.90;99.90
61201;DHT22;47065;52.898;6.992;2024-01-16T14:17:54;1.90;99.90
61201;DHT22;47065;52.898;6.992;2024-01-16T14:20:21;1.80;99.90
61201;DHT22;47065;52.898;6.992;2024-01-16T14:22:51;1.70;99.90
61201;DHT22;47065;52.898;6.992;2024-01-16T14:25:18;1.70;99.90
61201;DHT22;47065;52.898;6.992;2024-01-16T14:27:48;1.70;99.90
61201;DHT22;47065;52.898;6.992;2024-01-16T14:30:15;1.50;99.90
61201;DHT22;47065;52.898;6.992;2024-01-16T14:32:43;1.60;99.90
61201;DHT22;47065;52.898;6.992;2024-01-16T14:35:10;1.50;99.90
61201;DHT22;47065;52.898;6.992;2024-01-16T14:37:37;1.60;99.90
61201;DHT22;47065;52.898;6.992;2024-01-16T14:40:04;1.60;99.90
61201;DHT22;47065;52.898;6.992;2024-01-16T14:42:46;1.60;99.90
61201;DHT22;47065;52.898;6.992;2024-01-16T14:45:16;1.60;99.90
61201;DHT22;47065;52.898;6.992;2024-01-16T14:47:42;1.60;99.90
61201;DHT22;47065;52.898;6.992;2024-01-16T14:50:10;1.70;99.90
61201;DHT22;47065;52.898;6.992;2024-01-16T14:52:38;1.70;99.90
61201;DHT22;47065;52.898;6.992;2024-01-16T14:55:06;1.60;99.90
61201;DHT22;47065;52.898;6.992;2024-01-16T14:57:34;1.70;99.90
61201;DHT22;47065;52.898;6.992;2024-01-16T15:00:11;1.70;99.90
61201;DHT22;47065;52.898;6.992;2024-01-16T15:02:41;1.60;99.90
61201;DHT22;47065;52.898;6.992;2024-01-16T15:05:08;1.60;99.90
61201;DHT22;47065;52.898;6.992;2024-01-16T15:07:34;1.60;99.90
61201;DHT22;47065;52.898;6.992;2024-01-16T15:10:00;1.60;99.90
61201;DHT22;47065;52.898;6.992;2024-01-16T15:12:26;1.50;99.90
61201;DHT22;47065;52.898;6.992;2024-01-16T15:14:52;1.50;99.90
61201;DHT22;47065;52.898;6.992;2024-01-16T15:17:18;1.40;99.90
61201;DHT22;47065;52.898;6.992;2024-01-16T15:19:43;1.40;99.90
61201;DHT22;47065;52.898;6.992;2024-01-16T15:22:09;1.40;99.90
61201;DHT22;47065;52.898;6.992;2024-01-16T15:24:34;1.30;99.90
61201;DHT22;47065;52.898;6.992;2024-01-16T15:27:00;1.30;99.90
61201;DHT22;47065;52.898;6.992;2024-01-16T15:29:26;1.20;99.90
61201;DHT22;47065;52.898;6.992;2024-01-16T15:31:52;1.20;99.90
61201;DHT22;47065;52.898;6.992;2024-01-16T15:34:18;1.20;99.90
61201;DHT22;47065;52.898;6.992;2024-01-16T15:36:45;1.20;99.90
61201;DHT22;47065;52.898;6.992;2024-01-16T15:39:14;1.20;99.90
61201;DHT22;47065;52.898;6.992;2024-01-16T15:41:42;1.10;99.90
61201;DHT22;47065;52.898;6.992;2024-01-16T15:44:08;1.20;99.90
61201;DHT22;47065;52.898;6.992;2024-01-16T15:49:19;1.10;99.90
61201;DHT22;47065;52.898;6.992;2024-01-16T15:51:44;1.10;99.90
61201;DHT22;47065;52.898;6.992;2024-01-16T15:54:13;1.00;99.90
61201;DHT22;47065;52.898;6.992;2024-01-16T15:56:38;1.00;99.90
61201;DHT22;47065;52.898;6.992;2024-01-16T15:59:04;1.00;99.90
61201;DHT22;47065;52.898;6.992;2024-01-16T16:01:30;1.00;99.90
61201;DHT22;47065;52.898;6.992;2024-01-16T16:03:57;1.00;99.90
61201;DHT22;47065;52.898;6.992;2024-01-16T16:06:23;1.00;99.90